Time;durP1;ratioP1;P1;durP2;ratioP2;P2;SDS_P1;SDS_P2;PMS_P1;PMS_P2;Temp;Humidity;BMP_temperature;BMP_pressure;BME280_temperature;BME280_humidity;BME280_pressure;Samples;Min_cycle;Max_cycle;Signal;HPM_P1;HPM_P2
2022/08/30 00:01:26;;;;;;;11.20;2.70;;;;;;;13.76;84.09;100701.23;105830;1277;22565;-66
2022/08/30 00:03:59;;;;;;;11.50;2.50;;;;;;;13.74;84.31;100701.86;105527;1276;22617;-67
2022/08/30 00:06:31;;;;;;;9.40;2.20;;;;;;;13.71;84.37;100699.33;105762;1274;22785;-67
2022/08/30 00:09:02;;;;;;;14.80;2.50;;;;;;;13.69;84.35;100700.31;105592;1277;22589;-66
2022/08/30 00:11:34;;;;;;;10.90;2.90;;;;;;;13.68;84.40;100705.77;105603;1276;23228;-66
2022/08/30 00:14:06;;;;;;;9.90;3.20;;;;;;;13.68;84.47;100700.75;105706;1276;24237;-66
2022/08/30 00:16:37;;;;;;;12.00;2.50;;;;;;;13.67;84.56;100701.81;105794;1276;22556;-66
2022/08/30 00:19:09;;;;;;;12.60;2.70;;;;;;;13.69;84.65;100704.52;105554;1278;22559;-66
2022/08/30 00:21:40;;;;;;;10.70;2.60;;;;;;;13.69;84.52;100701.13;105463;1277;22631;-66
2022/08/30 00:24:12;;;;;;;10.50;3.20;;;;;;;13.70;84.74;100706.33;105688;1276;22622;-66
2022/08/30 00:26:44;;;;;;;11.50;2.80;;;;;;;13.68;84.56;100706.01;105509;1276;22767;-67
2022/08/30 00:29:16;;;;;;;11.80;3.50;;;;;;;13.68;84.79;100706.51;105559;1276;25425;-67
2022/08/30 00:31:47;;;;;;;18.90;4.10;;;;;;;13.69;84.73;100710.31;105570;1275;26524;-67
2022/08/30 00:34:19;;;;;;;14.00;4.40;;;;;;;13.67;84.84;100710.58;105585;1275;25547;-67
2022/08/30 00:36:50;;;;;;;10.90;3.40;;;;;;;13.66;85.06;100711.27;105688;1276;24439;-66
2022/08/30 00:39:22;;;;;;;9.70;2.60;;;;;;;13.65;85.10;100712.04;105646;1276;22557;-67
2022/08/30 00:41:53;;;;;;;10.30;3.00;;;;;;;13.65;85.05;100714.79;105389;1276;24221;-66
2022/08/30 00:44:25;;;;;;;11.20;3.20;;;;;;;13.65;85.18;100704.94;105515;1276;22551;-65
2022/08/30 00:46:56;;;;;;;15.90;3.50;;;;;;;13.63;85.15;100701.25;105612;1276;22550;-67
2022/08/30 00:49:29;;;;;;;15.20;4.10;;;;;;;13.61;85.31;100701.11;105607;1278;25375;-67
2022/08/30 00:52:03;;;;;;;12.70;4.20;;;;;;;13.60;85.38;100700.48;105598;1276;25248;-67
2022/08/30 00:54:37;;;;;;;13.90;3.50;;;;;;;13.58;85.32;100696.83;105752;1276;22562;-68
2022/08/30 00:57:10;;;;;;;11.40;2.70;;;;;;;13.56;85.35;100698.54;105647;1277;22550;-67
2022/08/30 00:59:43;;;;;;;13.40;3.30;;;;;;;13.54;85.34;100696.88;105586;1275;22694;-66
2022/08/30 01:02:16;;;;;;;11.80;3.00;;;;;;;13.54;85.68;100700.19;105578;1277;22886;-65
2022/08/30 01:04:48;;;;;;;11.50;3.60;;;;;;;13.54;85.68;100695.85;105443;1277;22553;-67
2022/08/30 01:07:19;;;;;;;13.20;4.10;;;;;;;13.54;85.84;100694.42;105519;1277;25447;-67
2022/08/30 01:09:51;;;;;;;13.40;4.30;;;;;;;13.53;85.95;100694.46;105614;1276;24379;-66
2022/08/30 01:12:23;;;;;;;15.00;3.00;;;;;;;13.53;85.88;100692.73;105597;1276;25241;-66
2022/08/30 01:14:55;;;;;;;13.20;3.60;;;;;;;13.52;85.99;100690.93;105539;1276;25374;-67
2022/08/30 01:17:27;;;;;;;13.40;3.30;;;;;;;13.51;85.84;100693.62;105503;1277;24257;-67
2022/08/30 01:20:04;;;;;;;10.20;3.40;;;;;;;13.50;85.89;100694.02;105643;1277;25639;-67
2022/08/30 01:22:42;;;;;;;14.80;4.00;;;;;;;13.49;85.93;100691.40;105415;1276;22577;-66
2022/08/30 01:25:15;;;;;;;13.80;3.20;;;;;;;13.49;86.03;100695.92;105391;1276;23098;-66
2022/08/30 01:27:52;;;;;;;13.90;3.50;;;;;;;13.47;86.27;100693.52;105560;1275;22551;-67
2022/08/30 01:30:24;;;;;;;13.60;3.60;;;;;;;13.47;86.21;100696.17;105530;1275;22660;-67
2022/08/30 01:33:00;;;;;;;14.00;4.30;;;;;;;13.47;86.34;100694.95;105479;1277;22679;-67
2022/08/30 01:35:39;;;;;;;14.40;3.70;;;;;;;13.46;86.57;100694.57;105693;1276;22705;-67
2022/08/30 01:38:11;;;;;;;12.90;4.00;;;;;;;13.45;86.82;100697.67;105569;1277;22606;-67
2022/08/30 01:40:43;;;;;;;12.90;3.50;;;;;;;13.45;87.07;100697.21;105618;1276;22559;-66
2022/08/30 01:43:17;;;;;;;19.40;5.50;;;;;;;13.45;86.99;100695.59;105530;1277;25671;-66
2022/08/30 01:45:48;;;;;;;16.40;5.10;;;;;;;13.44;87.05;100696.59;105494;1276;22547;-67
2022/08/30 01:48:20;;;;;;;16.40;5.30;;;;;;;13.44;87.42;100698.71;105655;1276;24299;-67
2022/08/30 01:50:52;;;;;;;20.00;6.60;;;;;;;13.44;87.59;100693.25;105510;1276;25524;-66
2022/08/30 01:53:23;;;;;;;19.10;7.50;;;;;;;13.44;87.59;100695.16;105484;1276;22709;-66
2022/08/30 01:55:55;;;;;;;26.80;8.40;;;;;;;13.46;87.85;100698.04;105571;1277;22544;-66
2022/08/30 01:58:27;;;;;;;20.40;7.90;;;;;;;13.46;88.14;100699.15;105680;1276;24233;-66
2022/08/30 02:00:59;;;;;;;19.80;8.30;;;;;;;13.45;88.23;100701.17;105504;1276;23101;-67
2022/08/30 02:03:34;;;;;;;21.20;7.30;;;;;;;13.45;88.16;100701.13;105704;1274;25424;-66
2022/08/30 02:06:08;;;;;;;22.10;8.70;;;;;;;13.44;88.43;100700.45;105432;1278;22570;-67
2022/08/30 02:08:40;;;;;;;17.00;6.90;;;;;;;13.44;88.65;100700.05;105598;1275;25376;-67
2022/08/30 02:11:13;;;;;;;18.20;7.60;;;;;;;13.43;88.61;100703.76;105797;1277;22563;-67
2022/08/30 02:13:46;;;;;;;17.30;6.90;;;;;;;13.43;88.65;100703.70;105674;1276;23210;-66
2022/08/30 02:16:21;;;;;;;17.60;6.80;;;;;;;13.43;88.67;100704.05;105718;1277;22716;-67
2022/08/30 02:18:57;;;;;;;16.80;6.40;;;;;;;13.41;88.63;100703.67;105759;1277;22548;-67
2022/08/30 02:21:29;;;;;;;19.40;7.20;;;;;;;13.39;88.38;100707.62;105932;1275;22690;-68
2022/08/30 02:24:01;;;;;;;18.10;6.20;;;;;;;13.37;88.22;100708.20;105561;1276;22554;-66
2022/08/30 02:26:35;;;;;;;19.60;6.50;;;;;;;13.37;88.67;100706.61;105660;1276;25438;-67
2022/08/30 02:29:08;;;;;;;15.50;5.10;;;;;;;13.37;88.70;100711.92;105572;1276;22587;-67
2022/08/30 02:31:40;;;;;;;15.70;6.00;;;;;;;13.39;89.03;100719.04;105545;1276;23863;-67
2022/08/30 02:34:12;;;;;;;16.60;5.70;;;;;;;13.40;89.19;100715.29;105559;1277;23065;-66
2022/08/30 02:36:44;;;;;;;17.40;5.70;;;;;;;13.41;89.40;100717.04;105486;1276;22590;-67
2022/08/30 02:39:16;;;;;;;18.20;6.00;;;;;;;13.42;89.57;100715.67;105694;1277;25407;-67
2022/08/30 02:41:47;;;;;;;16.60;5.20;;;;;;;13.46;89.59;100709.82;105637;1276;22718;-67
2022/08/30 02:44:19;;;;;;;19.90;6.50;;;;;;;13.49;90.02;100708.23;105721;1277;22557;-67
2022/08/30 02:46:50;;;;;;;15.00;5.00;;;;;;;13.53;90.01;100709.52;105704;1276;23223;-67
2022/08/30 02:49:22;;;;;;;21.30;4.90;;;;;;;13.55;90.01;100705.98;105670;1277;22697;-67
2022/08/30 02:51:54;;;;;;;14.80;5.30;;;;;;;13.58;90.24;100707.23;105528;1276;22540;-67
2022/08/30 02:54:27;;;;;;;17.60;5.70;;;;;;;13.62;90.44;100707.99;105546;1276;22607;-67
2022/08/30 02:56:59;;;;;;;15.70;5.70;;;;;;;13.64;90.64;100708.25;105673;1275;23546;-67
2022/08/30 02:59:31;;;;;;;15.90;5.30;;;;;;;13.67;90.86;100711.04;105667;1277;24309;-66
2022/08/30 03:02:02;;;;;;;14.30;5.10;;;;;;;13.71;90.85;100709.16;105639;1276;24306;-66
2022/08/30 03:04:34;;;;;;;17.00;5.50;;;;;;;13.73;91.06;100711.42;105639;1276;25576;-66
2022/08/30 03:07:05;;;;;;;15.00;5.40;;;;;;;13.76;91.06;100715.71;105658;1276;22550;-67
2022/08/30 03:09:38;;;;;;;18.50;5.70;;;;;;;13.80;91.34;100713.83;105810;1276;22773;-67
2022/08/30 03:12:09;;;;;;;16.50;5.00;;;;;;;13.84;91.52;100716.64;105689;1277;22535;-67
2022/08/30 03:14:41;;;;;;;18.40;6.30;;;;;;;13.88;91.55;100716.48;105745;1276;22557;-67
2022/08/30 03:17:13;;;;;;;20.20;5.70;;;;;;;13.91;91.78;100721.27;105621;1276;25468;-67
2022/08/30 03:19:45;;;;;;;22.10;7.20;;;;;;;13.94;91.69;100719.15;105829;1276;22566;-67
2022/08/30 03:22:17;;;;;;;18.50;5.10;;;;;;;13.98;91.82;100719.16;105666;1276;22482;-66
2022/08/30 03:24:49;;;;;;;17.30;5.80;;;;;;;14.02;91.81;100718.48;105746;1276;22602;-67
2022/08/30 03:27:20;;;;;;;19.80;6.20;;;;;;;14.05;91.75;100721.29;105586;1277;22574;-67
2022/08/30 03:29:52;;;;;;;16.30;5.50;;;;;;;14.06;91.74;100718.84;105804;1276;22552;-66
2022/08/30 03:32:24;;;;;;;16.50;5.10;;;;;;;14.09;91.74;100721.80;105772;1276;22592;-66
2022/08/30 03:34:56;;;;;;;21.60;6.70;;;;;;;14.11;91.57;100719.67;105654;1276;22538;-68
2022/08/30 03:37:27;;;;;;;17.00;5.80;;;;;;;14.13;91.82;100720.21;105661;1276;23125;-67
2022/08/30 03:39:59;;;;;;;21.00;6.30;;;;;;;14.14;91.64;100725.07;105844;1276;25337;-67
2022/08/30 03:42:30;;;;;;;20.00;6.40;;;;;;;14.14;91.66;100726.40;105874;1275;22632;-67
2022/08/30 03:45:02;;;;;;;17.20;5.80;;;;;;;14.13;91.66;100721.33;105761;1276;22551;-66
2022/08/30 03:47:34;;;;;;;17.30;6.00;;;;;;;14.12;91.74;100721.84;105563;1275;25396;-66
2022/08/30 03:50:07;;;;;;;17.00;6.20;;;;;;;14.12;91.63;100721.88;105781;1277;26653;-66
2022/08/30 03:52:39;;;;;;;19.70;6.40;;;;;;;14.11;91.77;100727.03;105625;1274;22560;-66
2022/08/30 03:55:12;;;;;;;19.00;5.60;;;;;;;14.10;91.80;100724.41;105692;1277;26642;-66
2022/08/30 03:57:43;;;;;;;15.90;4.90;;;;;;;14.08;91.86;100725.01;105525;1276;23020;-67
2022/08/30 04:00:16;;;;;;;17.80;5.70;;;;;;;14.08;91.81;100724.93;105815;1277;25492;-67
2022/08/30 04:02:48;;;;;;;14.70;5.20;;;;;;;14.06;91.68;100729.20;105706;1274;22594;-67
2022/08/30 04:05:21;;;;;;;17.40;6.10;;;;;;;14.05;91.61;100726.55;105791;1276;22616;-67
2022/08/30 04:07:52;;;;;;;15.10;4.90;;;;;;;14.03;91.54;100728.57;105771;1276;23920;-67
2022/08/30 04:10:26;;;;;;;15.20;5.80;;;;;;;14.02;91.47;100723.70;106148;1276;24374;-67
2022/08/30 04:12:57;;;;;;;17.70;7.00;;;;;;;13.99;91.08;100728.31;105765;1276;25461;-66
2022/08/30 04:15:29;;;;;;;15.20;6.50;;;;;;;13.97;91.10;100731.52;106010;1277;24303;-67
2022/08/30 04:18:00;;;;;;;16.80;5.70;;;;;;;13.94;91.08;100730.58;105592;1274;22884;-67
2022/08/30 04:20:32;;;;;;;17.70;5.90;;;;;;;13.92;90.96;100734.89;105788;1276;22568;-68
2022/08/30 04:23:05;;;;;;;17.30;6.40;;;;;;;13.89;90.95;100740.33;105779;1278;27765;-68
2022/08/30 04:25:40;;;;;;;20.60;7.00;;;;;;;13.89;91.32;100739.95;105951;1276;22699;-68
2022/08/30 04:28:11;;;;;;;17.80;6.10;;;;;;;13.90;91.59;100741.40;105848;1277;25646;-68
2022/08/30 04:30:44;;;;;;;18.00;6.70;;;;;;;13.91;92.04;100740.84;106127;1278;22784;-68
2022/08/30 04:33:17;;;;;;;18.50;7.40;;;;;;;13.93;91.79;100748.37;106129;1276;22560;-68
2022/08/30 04:35:50;;;;;;;20.60;7.40;;;;;;;13.93;92.03;100744.50;105838;1274;25945;-68
2022/08/30 04:38:22;;;;;;;18.70;7.60;;;;;;;13.95;92.25;100748.86;105886;1276;22711;-67
2022/08/30 04:40:54;;;;;;;20.10;8.10;;;;;;;13.98;92.55;100755.54;105849;1276;25632;-68
2022/08/30 04:43:26;;;;;;;23.90;7.90;;;;;;;14.01;92.73;100756.80;105788;1275;22714;-68
2022/08/30 04:45:58;;;;;;;21.40;9.00;;;;;;;14.03;92.70;100752.65;105843;1278;22564;-68
2022/08/30 04:48:29;;;;;;;23.40;8.00;;;;;;;14.05;92.87;100756.76;106361;1276;22639;-68
2022/08/30 04:51:02;;;;;;;18.90;8.10;;;;;;;14.06;92.96;100761.44;106047;1276;23123;-68
2022/08/30 04:53:35;;;;;;;21.50;8.20;;;;;;;14.08;93.13;100759.59;106188;1276;24242;-68
2022/08/30 04:56:11;;;;;;;16.00;7.50;;;;;;;14.10;93.18;100763.95;106158;1276;22550;-68
2022/08/30 04:58:42;;;;;;;22.20;8.20;;;;;;;14.12;93.58;100765.73;106204;1277;22654;-68
2022/08/30 05:01:16;;;;;;;18.50;8.30;;;;;;;14.16;94.03;100767.23;105750;1276;25371;-67
2022/08/30 05:03:49;;;;;;;21.20;8.80;;;;;;;14.20;94.42;100763.40;105716;1276;22538;-67
2022/08/30 05:06:21;;;;;;;28.90;9.70;;;;;;;14.27;94.65;100763.74;105578;1276;22557;-66
2022/08/30 05:08:53;;;;;;;18.80;8.00;;;;;;;14.32;94.87;100765.98;105732;1275;22552;-68
2022/08/30 05:11:25;;;;;;;22.90;8.90;;;;;;;14.38;94.61;100764.26;105763;1276;25652;-68
2022/08/30 05:13:57;;;;;;;24.40;9.30;;;;;;;14.45;94.65;100765.92;105622;1277;24248;-68
2022/08/30 05:16:29;;;;;;;23.30;8.50;;;;;;;14.52;94.67;100766.30;106213;1275;25443;-68
2022/08/30 05:19:00;;;;;;;21.20;7.90;;;;;;;14.57;94.82;100768.56;105695;1277;22543;-68
2022/08/30 05:21:33;;;;;;;17.40;7.60;;;;;;;14.63;94.77;100768.38;105800;1276;22769;-68
2022/08/30 05:24:05;;;;;;;21.50;7.90;;;;;;;14.69;94.61;100769.30;105910;1277;24361;-68
2022/08/30 05:26:39;;;;;;;24.40;8.50;;;;;;;14.74;94.64;100769.09;109499;1275;22514;-69
2022/08/30 05:29:11;;;;;;;18.80;8.30;;;;;;;14.79;94.54;100770.78;107233;1277;22542;-69
2022/08/30 05:31:43;;;;;;;22.30;8.50;;;;;;;14.83;94.49;100772.05;105966;1275;24231;-68
2022/08/30 05:34:15;;;;;;;19.60;7.50;;;;;;;14.86;94.73;100774.90;105795;1277;22880;-68
2022/08/30 05:36:47;;;;;;;15.90;7.50;;;;;;;14.90;94.50;100774.89;106353;1275;22544;-68
2022/08/30 05:39:19;;;;;;;21.50;8.00;;;;;;;14.91;94.39;100777.59;106131;1277;22594;-67
2022/08/30 05:41:51;;;;;;;18.50;7.90;;;;;;;14.90;94.32;100777.85;105773;1276;22628;-67
2022/08/30 05:44:22;;;;;;;21.50;9.00;;;;;;;14.92;94.49;100775.52;105792;1276;22708;-68
2022/08/30 05:46:54;;;;;;;20.60;7.70;;;;;;;14.93;94.47;100775.64;105742;1275;25390;-67
2022/08/30 05:49:26;;;;;;;21.90;8.50;;;;;;;14.96;94.58;100776.38;105667;1277;25439;-68
2022/08/30 05:51:57;;;;;;;23.40;9.40;;;;;;;14.97;94.61;100777.52;105773;1276;22566;-68
2022/08/30 05:54:29;;;;;;;21.20;9.30;;;;;;;15.00;94.90;100783.42;105735;1278;25339;-68
2022/08/30 05:57:00;;;;;;;20.30;10.40;;;;;;;15.04;94.97;100787.85;105819;1275;24239;-68
2022/08/30 05:59:33;;;;;;;21.00;8.50;;;;;;;15.09;95.03;100788.16;105765;1277;22708;-68
2022/08/30 06:02:06;;;;;;;21.70;8.80;;;;;;;15.14;94.90;100786.47;105874;1276;22765;-69
2022/08/30 06:04:38;;;;;;;16.80;8.20;;;;;;;15.19;94.92;100788.61;105792;1277;25266;-68
2022/08/30 06:07:09;;;;;;;19.30;8.70;;;;;;;15.25;94.78;100783.69;105748;1276;23171;-68
2022/08/30 06:09:40;;;;;;;20.60;8.70;;;;;;;15.30;94.79;100785.17;105824;1274;22712;-68
2022/08/30 06:12:12;;;;;;;23.90;8.80;;;;;;;15.38;94.99;100784.16;105789;1276;25350;-68
2022/08/30 06:14:45;;;;;;;21.60;9.50;;;;;;;15.44;94.61;100790.02;105887;1275;25947;-68
2022/08/30 06:17:16;;;;;;;23.10;9.70;;;;;;;15.49;94.57;100788.52;105883;1276;24395;-68
2022/08/30 06:19:48;;;;;;;24.30;7.30;;;;;;;15.55;94.71;100791.64;106188;1276;24237;-68
2022/08/30 06:22:20;;;;;;;22.00;10.30;;;;;;;15.61;94.68;100794.51;106126;1276;23970;-68
2022/08/30 06:24:51;;;;;;;21.40;9.70;;;;;;;15.67;94.70;100790.61;105869;1277;22540;-68
2022/08/30 06:27:23;;;;;;;20.70;8.60;;;;;;;15.71;94.63;100789.58;105906;1273;22537;-68
2022/08/30 06:29:55;;;;;;;18.40;8.10;;;;;;;15.76;94.68;100789.59;105781;1277;22765;-68
2022/08/30 06:32:26;;;;;;;25.80;10.50;;;;;;;15.81;94.65;100790.95;105778;1274;25517;-68
2022/08/30 06:34:58;;;;;;;29.50;8.70;;;;;;;15.85;94.42;100792.52;105802;1277;24347;-67
2022/08/30 06:37:31;;;;;;;20.70;8.60;;;;;;;15.89;94.75;100794.80;105798;1276;24702;-68
2022/08/30 06:40:04;;;;;;;21.50;8.50;;;;;;;15.97;94.83;100795.55;105847;1277;25381;-68
2022/08/30 06:42:36;;;;;;;15.40;7.00;;;;;;;16.05;94.87;100795.87;106052;1275;24394;-68
2022/08/30 06:45:09;;;;;;;19.30;7.80;;;;;;;16.13;95.02;100797.90;105791;1277;22811;-68
2022/08/30 06:47:41;;;;;;;17.60;7.60;;;;;;;16.20;94.77;100795.90;105819;1275;25390;-68
2022/08/30 06:50:18;;;;;;;18.60;7.90;;;;;;;16.26;94.65;100801.14;106033;1277;24395;-69
2022/08/30 06:52:50;;;;;;;17.30;7.70;;;;;;;16.34;94.89;100800.11;105720;1276;24270;-68
2022/08/30 06:55:24;;;;;;;20.30;8.80;;;;;;;16.41;94.88;100795.02;105853;1277;22567;-69
2022/08/30 06:57:56;;;;;;;16.80;7.00;;;;;;;16.48;94.82;100796.99;105822;1276;22778;-68
2022/08/30 07:00:29;;;;;;;17.40;7.50;;;;;;;16.53;94.56;100795.45;106150;1276;24828;-67
2022/08/30 07:03:02;;;;;;;17.30;7.50;;;;;;;16.58;94.47;100800.70;105829;1276;23916;-68
2022/08/30 07:05:35;;;;;;;17.20;7.60;;;;;;;16.62;94.52;100802.10;105798;1276;24226;-69
2022/08/30 07:08:07;;;;;;;19.70;9.20;;;;;;;16.68;94.44;100802.46;105816;1276;24232;-68
2022/08/30 07:10:41;;;;;;;19.30;7.90;;;;;;;16.71;94.26;100806.33;105902;1276;22535;-68
2022/08/30 07:13:13;;;;;;;17.50;7.40;;;;;;;16.74;94.55;100804.18;105821;1275;24227;-67
2022/08/30 07:15:47;;;;;;;16.90;7.40;;;;;;;16.81;94.83;100804.16;105806;1278;22541;-68
2022/08/30 07:21:11;;;;;;;18.40;7.50;;;;;;;16.93;94.49;100811.46;105739;1278;22706;-68
2022/08/30 07:23:44;;;;;;;17.70;6.60;;;;;;;16.95;94.27;100815.02;105821;1276;22550;-68
2022/08/30 07:26:18;;;;;;;15.60;6.20;;;;;;;16.99;94.38;100812.85;105835;1277;27021;-68
2022/08/30 07:28:50;;;;;;;15.60;7.40;;;;;;;17.04;94.68;100817.80;105795;1276;25375;-68
2022/08/30 07:31:22;;;;;;;16.20;6.90;;;;;;;17.11;94.60;100816.52;105802;1276;23250;-67
2022/08/30 07:33:54;;;;;;;15.20;5.50;;;;;;;17.20;94.75;100822.33;105861;1275;24226;-68
2022/08/30 07:36:26;;;;;;;15.50;5.40;;;;;;;17.28;94.35;100821.63;105910;1276;22540;-69
2022/08/30 07:39:00;;;;;;;14.90;6.10;;;;;;;17.32;93.95;100826.04;105946;1274;22561;-68
2022/08/30 07:41:34;;;;;;;15.30;5.60;;;;;;;17.35;93.70;100825.67;105814;1277;22540;-68
2022/08/30 07:44:07;;;;;;;13.30;4.80;;;;;;;17.37;93.46;100823.27;105919;1274;22534;-68
2022/08/30 07:46:40;;;;;;;13.70;5.20;;;;;;;17.39;93.32;100822.09;105901;1274;22571;-67
2022/08/30 07:49:12;;;;;;;14.00;5.70;;;;;;;17.41;93.13;100823.73;105840;1277;22474;-68
2022/08/30 07:51:44;;;;;;;13.40;4.90;;;;;;;17.44;93.12;100826.34;106119;1274;24303;-69
2022/08/30 07:54:16;;;;;;;15.80;5.30;;;;;;;17.50;93.22;100830.70;105860;1276;22528;-68
2022/08/30 07:56:48;;;;;;;14.80;5.60;;;;;;;17.60;93.40;100827.52;105890;1276;22560;-68
2022/08/30 07:59:20;;;;;;;12.80;5.00;;;;;;;17.70;93.35;100831.02;105944;1277;22548;-68
2022/08/30 08:01:52;;;;;;;11.90;4.70;;;;;;;17.76;92.94;100830.02;105911;1276;22710;-69
2022/08/30 08:04:24;;;;;;;14.70;4.80;;;;;;;17.82;92.81;100835.65;105829;1277;24220;-68
2022/08/30 08:06:55;;;;;;;12.50;5.00;;;;;;;17.83;92.20;100836.84;105936;1276;22718;-69
2022/08/30 08:09:28;;;;;;;15.30;5.10;;;;;;;17.83;92.18;100837.71;105996;1278;25206;-68
2022/08/30 08:12:00;;;;;;;15.00;5.40;;;;;;;17.87;92.27;100837.30;105913;1276;22540;-68
2022/08/30 08:14:33;;;;;;;13.70;4.90;;;;;;;17.95;92.26;100839.09;105884;1277;22568;-68
2022/08/30 08:17:05;;;;;;;12.20;5.10;;;;;;;18.03;92.17;100843.96;105886;1276;25460;-68
2022/08/30 08:19:37;;;;;;;13.10;4.50;;;;;;;18.08;91.97;100842.55;106344;1276;22560;-69
2022/08/30 08:22:09;;;;;;;11.40;4.80;;;;;;;18.13;91.66;100842.14;106255;1276;22651;-68
2022/08/30 08:24:41;;;;;;;14.10;5.00;;;;;;;18.18;91.39;100843.57;106327;1278;22546;-69
2022/08/30 08:27:12;;;;;;;12.90;3.80;;;;;;;18.28;91.72;100845.59;106344;1275;23190;-69
2022/08/30 08:29:45;;;;;;;11.20;3.20;;;;;;;18.39;91.21;100849.00;106554;1277;25402;-69
2022/08/30 08:32:16;;;;;;;11.00;3.80;;;;;;;18.54;91.68;100850.58;106423;1276;22544;-69
2022/08/30 08:34:48;;;;;;;11.80;4.20;;;;;;;18.73;91.86;100850.86;106172;1278;25949;-69
2022/08/30 08:37:20;;;;;;;10.70;4.10;;;;;;;18.86;91.04;100853.98;106370;1276;23312;-69
2022/08/30 08:39:54;;;;;;;9.60;2.50;;;;;;;18.90;89.81;100856.64;106199;1277;25341;-69
2022/08/30 08:42:35;;;;;;;7.40;2.00;;;;;;;18.85;88.93;100857.76;106446;1275;22531;-69
2022/08/30 08:45:12;;;;;;;6.80;1.90;;;;;;;18.80;88.94;100859.52;106202;1277;22711;-68
2022/08/30 08:47:55;;;;;;;4.40;1.80;;;;;;;18.81;88.79;100859.47;106228;1276;24283;-68
2022/08/30 08:50:28;;;;;;;6.20;1.90;;;;;;;18.86;88.76;100864.23;106223;1277;22608;-68
2022/08/30 08:55:56;;;;;;;8.20;2.20;;;;;;;19.00;88.18;100865.69;106231;1278;22595;-68
2022/08/30 08:58:31;;;;;;;8.10;2.30;;;;;;;19.08;87.94;100864.21;106287;1275;22570;-68
2022/08/30 09:01:03;;;;;;;8.60;2.50;;;;;;;19.11;87.45;100862.27;106206;1278;23701;-68
2022/08/30 09:03:35;;;;;;;8.50;2.20;;;;;;;19.15;87.57;100857.89;106244;1275;25113;-68
2022/08/30 09:06:20;;;;;;;7.50;1.60;;;;;;;19.22;87.56;100852.55;106233;1278;24290;-68
2022/08/30 09:08:53;;;;;;;7.40;1.60;;;;;;;19.30;87.10;100857.94;106285;1276;22550;-69
2022/08/30 09:11:28;;;;;;;5.30;1.50;;;;;;;19.41;87.19;100859.74;106233;1277;23201;-68
2022/08/30 09:14:00;;;;;;;9.40;1.80;;;;;;;19.48;85.81;100858.20;106361;1276;25387;-68
2022/08/30 09:17:02;;;;;;;5.90;1.40;;;;;;;19.53;85.57;100857.55;106188;1278;22539;-68
2022/08/30 09:19:42;;;;;;;5.50;1.60;;;;;;;19.67;86.16;100857.17;106009;1275;24491;-68
2022/08/30 09:22:30;;;;;;;8.40;1.80;;;;;;;19.80;85.21;100855.93;105830;1277;22557;-68
2022/08/30 09:25:07;;;;;;;4.80;1.60;;;;;;;19.82;83.60;100859.68;105878;1276;22652;-68
2022/08/30 09:27:42;;;;;;;8.00;1.40;;;;;;;19.74;83.04;100857.90;105876;1278;22534;-69
2022/08/30 09:30:19;;;;;;;8.10;2.10;;;;;;;19.62;83.28;100856.70;105883;1276;25992;-68
2022/08/30 09:32:57;;;;;;;7.10;1.90;;;;;;;19.59;83.39;100858.23;105889;1278;24273;-68
2022/08/30 09:35:37;;;;;;;8.00;1.50;;;;;;;19.59;83.07;100856.84;105958;1276;23130;-68
2022/08/30 09:38:11;;;;;;;5.40;1.50;;;;;;;19.67;83.45;100853.79;105948;1277;22568;-67
2022/08/30 09:40:47;;;;;;;4.10;0.90;;;;;;;19.77;82.70;100853.23;106240;1263;80484;-76
2022/08/30 09:43:25;;;;;;;6.30;1.50;;;;;;;19.89;82.40;100850.50;107198;1274;24471;-76
2022/08/30 09:46:12;;;;;;;5.80;1.60;;;;;;;19.94;81.34;100846.95;106789;1274;25253;-75
2022/08/30 09:48:44;;;;;;;5.30;1.30;;;;;;;19.98;81.19;100845.98;106879;1274;24092;-75
2022/08/30 09:51:38;;;;;;;4.30;1.30;;;;;;;20.05;81.05;100838.64;106770;1274;24452;-75
2022/08/30 09:54:19;;;;;;;3.10;0.70;;;;;;;20.17;80.73;100837.39;106634;1276;23952;-75
2022/08/30 09:57:03;;;;;;;3.60;0.90;;;;;;;20.26;79.11;100837.27;106759;1276;24461;-76
2022/08/30 09:59:46;;;;;;;4.20;1.00;;;;;;;20.35;77.91;100839.89;105509;1276;1569823;-75
2022/08/30 10:02:33;;;;;;;3.90;1.00;;;;;;;20.40;77.47;100838.80;106613;1276;26424;-75
2022/08/30 10:05:15;;;;;;;4.30;0.90;;;;;;;20.49;78.45;100832.47;106600;1276;25280;-75
2022/08/30 10:07:57;;;;;;;4.10;0.90;;;;;;;20.57;77.55;100836.54;106471;1276;22542;-75
2022/08/30 10:10:36;;;;;;;6.80;1.10;;;;;;;20.65;77.48;100834.83;106670;1276;22731;-75
2022/08/30 10:13:43;;;;;;;3.80;1.20;;;;;;;20.76;77.13;100834.48;106823;1275;22562;-76
2022/08/30 10:16:22;;;;;;;5.10;1.10;;;;;;;20.86;76.85;100827.02;106864;1276;24452;-76
2022/08/30 10:19:06;;;;;;;5.40;1.40;;;;;;;20.93;76.82;100821.66;106650;1276;22550;-75
2022/08/30 10:21:42;;;;;;;8.20;2.10;;;;;;;20.98;77.10;100824.65;106623;1276;22565;-76
2022/08/30 10:24:16;;;;;;;3.90;1.10;;;;;;;20.98;76.80;100825.79;106817;1276;22558;-77
2022/08/30 10:26:53;;;;;;;5.30;1.10;;;;;;;20.95;76.15;100821.17;106710;1276;26728;-76
2022/08/30 10:29:29;;;;;;;3.70;1.10;;;;;;;20.94;75.65;100827.02;106459;1276;25370;-76
2022/08/30 10:32:08;;;;;;;3.50;1.00;;;;;;;20.93;74.82;100822.02;106589;1276;22593;-76
2022/08/30 10:34:42;;;;;;;4.80;1.50;;;;;;;20.92;74.68;100818.73;106795;1276;25365;-76
2022/08/30 10:37:18;;;;;;;3.20;1.10;;;;;;;20.96;74.64;100818.17;107002;1276;22560;-77
2022/08/30 10:39:53;;;;;;;4.00;0.80;;;;;;;20.97;72.41;100820.12;106628;1276;22694;-76
2022/08/30 10:42:31;;;;;;;5.10;0.90;;;;;;;20.96;72.00;100818.63;106802;1275;25545;-77
2022/08/30 10:45:07;;;;;;;2.50;0.90;;;;;;;20.95;72.61;100819.27;106837;1275;22485;-76
2022/08/30 10:47:44;;;;;;;4.70;1.00;;;;;;;20.98;73.28;100820.41;106481;1276;25380;-77
2022/08/30 10:50:23;;;;;;;4.20;0.90;;;;;;;21.02;72.95;100814.91;106685;1276;22578;-76
2022/08/30 10:52:58;;;;;;;3.70;0.90;;;;;;;20.96;72.51;100815.79;106798;1276;26480;-77
2022/08/30 10:55:33;;;;;;;4.40;1.00;;;;;;;20.90;72.37;100817.42;106798;1275;22932;-75
2022/08/30 10:58:06;;;;;;;4.20;1.30;;;;;;;20.90;73.16;100813.51;106851;1276;25412;-75
2022/08/30 11:00:46;;;;;;;4.80;0.80;;;;;;;20.97;72.26;100813.25;106738;1276;22558;-75
2022/08/30 11:03:44;;;;;;;3.30;0.90;;;;;;;21.03;72.50;100811.48;106861;1276;22503;-76
2022/08/30 11:06:25;;;;;;;2.70;0.90;;;;;;;21.16;71.56;100812.27;106385;1281;22625;-76
2022/08/30 11:09:09;;;;;;;3.50;0.70;;;;;;;21.25;70.98;100804.19;106375;1281;26609;-75
2022/08/30 11:12:02;;;;;;;2.50;0.60;;;;;;;21.32;69.30;100800.98;106404;1281;26475;-75
2022/08/30 11:14:34;;;;;;;2.80;0.70;;;;;;;21.34;69.68;100795.95;106402;1281;23031;-75
2022/08/30 11:17:05;;;;;;;2.60;0.60;;;;;;;21.36;69.32;100799.52;106474;1281;22612;-76
2022/08/30 11:19:41;;;;;;;2.50;0.70;;;;;;;21.36;69.09;100800.30;106471;1281;22549;-76
2022/08/30 11:22:17;;;;;;;3.90;0.70;;;;;;;21.32;69.28;100799.42;106371;1281;22542;-77
2022/08/30 11:25:11;;;;;;;4.20;0.70;;;;;;;21.32;68.94;100801.39;106249;1281;22501;-76
2022/08/30 11:27:48;;;;;;;3.10;0.50;;;;;;;21.29;68.67;100796.16;106256;1281;22666;-76
2022/08/30 11:30:47;;;;;;;2.40;0.50;;;;;;;21.31;68.61;100796.08;106451;1281;24373;-78
2022/08/30 11:33:49;;;;;;;2.00;0.60;;;;;;;21.36;68.26;100791.25;106272;1281;22569;-76
2022/08/30 11:37:05;;;;;;;1.80;0.50;;;;;;;21.45;68.17;100791.36;106395;1281;25907;-77
2022/08/30 11:39:54;;;;;;;2.70;0.50;;;;;;;21.45;66.88;100793.38;105957;1284;22569;-76
2022/08/30 11:42:43;;;;;;;3.50;0.70;;;;;;;21.39;66.09;100795.44;105891;1284;24282;-75
2022/08/30 11:45:51;;;;;;;2.20;0.50;;;;;;;21.30;65.97;100789.73;106275;1279;22548;-75
2022/08/30 11:48:44;;;;;;;3.70;0.60;;;;;;;21.31;65.97;100787.78;106327;1279;23396;-78
2022/08/30 11:52:05;;;;;;;2.00;0.60;;;;;;;21.35;65.25;100786.17;106477;1279;22713;-78